createdAt,value
2022-10-29T00:02:58.276Z,11.30
2022-10-29T00:08:20.425Z,11.90
2022-10-29T00:13:43.832Z,8.53
2022-10-29T00:19:06.370Z,10.37
2022-10-29T00:24:28.718Z,11.27
2022-10-29T00:29:50.760Z,9.07
2022-10-29T00:35:13.366Z,13.80
2022-10-29T00:40:38.646Z,15.90
2022-10-29T00:46:05.222Z,11.00
2022-10-29T00:51:28.652Z,15.33
2022-10-29T00:56:54.843Z,11.40
2022-10-29T01:02:17.367Z,8.50
2022-10-29T01:07:39.803Z,12.03
2022-10-29T01:13:13.469Z,11.67
2022-10-29T01:18:42.450Z,13.40
2022-10-29T01:24:30.998Z,10.87
2022-10-29T01:30:24.552Z,11.10
2022-10-29T01:36:19.054Z,15.27
2022-10-29T01:42:09.131Z,11.83
2022-10-29T01:47:44.216Z,18.53
2022-10-29T01:53:07.146Z,12.57
2022-10-29T01:58:29.612Z,16.03
2022-10-29T02:04:39.437Z,7.30
2022-10-29T02:10:36.054Z,11.77
2022-10-29T02:16:00.340Z,13.70
2022-10-29T02:21:22.776Z,17.73
2022-10-29T02:26:45.197Z,11.43
2022-10-29T02:32:07.319Z,8.20
2022-10-29T02:37:29.800Z,15.70
2022-10-29T02:42:51.919Z,11.90
2022-10-29T02:48:14.212Z,14.90
2022-10-29T02:53:37.193Z,13.50
2022-10-29T02:58:59.725Z,15.27
2022-10-29T03:04:22.194Z,16.37
2022-10-29T03:09:44.223Z,13.20
2022-10-29T03:15:07.274Z,16.53
2022-10-29T03:20:30.059Z,11.53
2022-10-29T03:25:55.904Z,17.30
2022-10-29T03:31:18.596Z,12.23
2022-10-29T03:36:41.174Z,12.07
2022-10-29T03:42:04.134Z,10.47
2022-10-29T03:47:27.168Z,12.00
2022-10-29T03:52:49.256Z,16.57
2022-10-29T03:58:11.170Z,11.43
2022-10-29T04:03:35.532Z,15.80
2022-10-29T04:08:57.925Z,16.47
2022-10-29T04:14:20.080Z,11.37
2022-10-29T04:19:42.332Z,13.60
2022-10-29T04:30:46.715Z,15.33
2022-10-29T04:36:09.419Z,14.87
2022-10-29T04:41:32.574Z,15.23
2022-10-29T04:46:54.973Z,11.93
2022-10-29T04:52:17.468Z,20.77
2022-10-29T04:57:39.711Z,19.03
2022-10-29T05:03:02.143Z,13.00
2022-10-29T05:08:24.361Z,18.53
2022-10-29T05:13:46.625Z,15.13
2022-10-29T05:19:08.841Z,14.37
2022-10-29T05:24:31.312Z,12.23
2022-10-29T05:29:53.517Z,13.87
2022-10-29T05:35:15.927Z,16.87
2022-10-29T05:40:38.520Z,12.73
2022-10-29T05:46:04.425Z,13.93
2022-10-29T05:51:26.783Z,20.67
2022-10-29T05:56:49.094Z,14.53
2022-10-29T06:02:11.640Z,15.97
2022-10-29T06:07:33.851Z,14.83
2022-10-29T06:12:56.253Z,16.07
2022-10-29T06:18:18.283Z,16.20
2022-10-29T06:23:40.830Z,15.50
2022-10-29T06:29:04.170Z,12.83
2022-10-29T06:34:26.838Z,15.40
2022-10-29T06:39:49.208Z,16.37
2022-10-29T06:45:12.596Z,21.00
2022-10-29T06:50:34.962Z,15.57
2022-10-29T06:55:59.201Z,17.43
2022-10-29T07:01:21.535Z,13.53
2022-10-29T07:06:43.873Z,21.13
2022-10-29T07:12:06.912Z,15.20
2022-10-29T07:17:29.146Z,19.90
2022-10-29T07:22:51.664Z,17.60
2022-10-29T07:28:23.231Z,21.13
2022-10-29T07:33:45.630Z,14.47
2022-10-29T07:39:07.983Z,17.03
2022-10-29T07:44:30.146Z,13.23
2022-10-29T07:49:52.383Z,22.30
2022-10-29T07:55:14.689Z,17.17
2022-10-29T08:00:40.327Z,12.80
2022-10-29T08:06:02.818Z,14.13
2022-10-29T08:11:25.094Z,19.37
2022-10-29T08:16:47.368Z,16.53
2022-10-29T08:22:09.679Z,20.30
2022-10-29T08:27:32.118Z,14.70
2022-10-29T08:32:55.015Z,16.40
2022-10-29T08:38:17.947Z,16.87
2022-10-29T08:43:58.597Z,14.77
2022-10-29T08:49:32.755Z,25.93
2022-10-29T08:55:14.040Z,19.00
2022-10-29T09:00:42.091Z,19.70
2022-10-29T09:06:20.070Z,23.53
2022-10-29T09:11:54.563Z,15.00
2022-10-29T09:17:45.066Z,25.30
2022-10-29T09:24:08.764Z,21.17
2022-10-29T09:29:49.747Z,24.87
2022-10-29T09:35:15.273Z,20.13
2022-10-29T09:40:43.346Z,22.90
2022-10-29T09:46:29.821Z,16.05
2022-10-29T09:52:03.632Z,26.00
2022-10-29T09:57:31.490Z,15.98
2022-10-29T10:03:32.066Z,23.05
2022-10-29T10:09:07.117Z,15.85
2022-10-29T10:14:31.333Z,13.48
2022-10-29T10:19:53.454Z,20.58
2022-10-29T10:25:33.189Z,15.20
2022-10-29T10:31:16.337Z,22.20
2022-10-29T10:36:42.374Z,11.77
2022-10-29T10:42:14.626Z,14.77
2022-10-29T10:47:41.835Z,17.80
2022-10-29T10:53:19.852Z,13.45
2022-10-29T10:58:47.679Z,15.40
2022-10-29T11:04:25.204Z,13.82
2022-10-29T11:09:51.004Z,21.83
2022-10-29T11:15:18.321Z,15.45
2022-10-29T11:20:48.425Z,18.50
2022-10-29T11:26:26.097Z,14.15
2022-10-29T11:32:06.687Z,16.10
2022-10-29T11:37:43.289Z,20.08
2022-10-29T11:43:12.101Z,19.10
2022-10-29T11:48:55.952Z,19.85
2022-10-29T11:54:43.534Z,12.45
2022-10-29T12:00:19.350Z,18.60
2022-10-29T12:06:19.462Z,16.60
2022-10-29T12:12:14.488Z,14.15
2022-10-29T12:17:40.000Z,20.45
2022-10-29T12:23:15.067Z,15.57
2022-10-29T12:28:49.705Z,10.93
2022-10-29T12:34:33.364Z,11.73
2022-10-29T12:40:34.899Z,18.42
2022-10-29T12:46:21.781Z,18.15
2022-10-29T12:51:53.984Z,15.07
2022-10-29T12:57:16.437Z,9.98
2022-10-29T13:02:38.886Z,12.20
2022-10-29T13:08:04.133Z,15.95
2022-10-29T13:13:38.765Z,11.95
2022-10-29T13:19:13.799Z,15.13
2022-10-29T13:24:35.867Z,13.02
2022-10-29T13:30:18.476Z,9.82
2022-10-29T13:35:41.222Z,11.65
2022-10-29T13:41:17.252Z,13.43
2022-10-29T13:46:44.831Z,14.07
2022-10-29T13:59:23.021Z,12.05
2022-10-29T14:04:51.023Z,13.43
2022-10-29T14:10:20.532Z,9.52
2022-10-29T14:16:08.223Z,13.70
2022-10-29T14:21:37.907Z,16.10
2022-10-29T14:27:07.634Z,10.85
2022-10-29T14:39:23.661Z,14.10
2022-10-29T14:44:50.133Z,8.63
2022-10-29T14:50:18.753Z,11.73
2022-10-29T14:55:48.258Z,12.23
2022-10-29T15:01:16.178Z,9.52
2022-10-29T15:06:38.514Z,11.35
2022-10-29T15:12:01.562Z,15.60
2022-10-29T15:17:26.703Z,7.25
2022-10-29T15:22:55.793Z,10.32
2022-10-29T15:28:23.956Z,10.45
2022-10-29T15:33:46.619Z,7.38
2022-10-29T15:39:23.078Z,13.05
2022-10-29T15:45:08.254Z,16.77
2022-10-29T15:50:40.582Z,12.13
2022-10-29T15:56:03.981Z,12.18
2022-10-29T16:01:26.414Z,14.50
2022-10-29T16:06:49.058Z,13.77
2022-10-29T16:12:11.835Z,18.33
2022-10-29T16:17:34.098Z,12.60
2022-10-29T16:22:56.667Z,12.25
2022-10-29T16:28:19.117Z,18.25
2022-10-29T16:33:41.526Z,13.20
2022-10-29T16:39:03.706Z,11.90
2022-10-29T16:44:26.318Z,12.27
2022-10-29T16:49:48.694Z,15.25
2022-10-29T16:55:11.646Z,13.82
2022-10-29T17:00:36.491Z,13.38
2022-10-29T17:06:04.565Z,12.70
2022-10-29T17:11:26.782Z,9.73
2022-10-29T17:16:49.231Z,15.63
2022-10-29T17:22:15.951Z,12.95
2022-10-29T17:27:39.936Z,9.88
2022-10-29T17:33:02.050Z,16.07
2022-10-29T17:38:24.425Z,13.10
2022-10-29T17:43:46.967Z,12.60
2022-10-29T17:49:09.103Z,15.43
2022-10-29T17:54:34.942Z,17.87
2022-10-29T17:59:57.967Z,16.17
2022-10-29T18:05:20.502Z,20.50
2022-10-29T18:10:42.838Z,20.90
2022-10-29T18:16:05.754Z,17.97
2022-10-29T18:21:28.200Z,18.90
2022-10-29T18:26:51.482Z,15.87
2022-10-29T18:32:14.019Z,18.50
2022-10-29T18:37:36.163Z,16.87
2022-10-29T18:42:58.669Z,16.67
2022-10-29T18:48:21.000Z,16.03
2022-10-29T18:53:43.294Z,12.63
2022-10-29T18:59:05.699Z,18.30
2022-10-29T19:04:27.992Z,16.87
2022-10-29T19:09:50.768Z,20.03
2022-10-29T19:15:13.152Z,18.20
2022-10-29T19:20:36.468Z,18.73
2022-10-29T19:26:12.877Z,14.13
2022-10-29T19:31:36.415Z,18.20
2022-10-29T19:36:58.802Z,19.43
2022-10-29T19:42:21.333Z,14.23
2022-10-29T19:47:43.508Z,12.60
2022-10-29T19:53:06.295Z,13.37
2022-10-29T19:58:28.755Z,19.87
2022-10-29T20:03:51.338Z,17.17
2022-10-29T20:09:13.312Z,21.10
2022-10-29T20:14:35.937Z,19.43
2022-10-29T20:19:58.122Z,19.50
2022-10-29T20:25:24.241Z,20.17
2022-10-29T20:30:46.675Z,26.63
2022-10-29T20:36:09.859Z,21.63
2022-10-29T20:41:32.398Z,26.53
2022-10-29T20:46:54.820Z,34.67
2022-10-29T20:52:17.361Z,27.13
2022-10-29T20:57:39.489Z,37.13
2022-10-29T21:03:02.011Z,24.73
2022-10-29T21:08:24.196Z,32.03
2022-10-29T21:13:46.862Z,24.50
2022-10-29T21:19:08.862Z,23.40
2022-10-29T21:24:30.963Z,20.57
2022-10-29T21:29:53.083Z,27.93
2022-10-29T21:35:17.013Z,24.00
2022-10-29T21:40:40.830Z,23.20
2022-10-29T21:46:02.996Z,19.97
2022-10-29T21:51:25.473Z,21.37
2022-10-29T21:56:47.773Z,19.47
2022-10-29T22:02:10.397Z,23.10
2022-10-29T22:07:32.889Z,34.30
2022-10-29T22:12:55.329Z,26.80
2022-10-29T22:18:18.151Z,23.90
2022-10-29T22:23:45.583Z,24.07
2022-10-29T22:29:08.051Z,26.13
2022-10-29T22:34:30.407Z,21.17
2022-10-29T22:39:52.908Z,22.07
2022-10-29T22:45:15.438Z,22.53
2022-10-29T22:50:37.669Z,25.27
2022-10-29T22:56:01.075Z,19.57
2022-10-29T23:01:25.787Z,23.00
2022-10-29T23:06:48.526Z,26.87
2022-10-29T23:12:11.088Z,24.50
2022-10-29T23:17:33.462Z,25.07
2022-10-29T23:22:56.256Z,28.13
2022-10-29T23:28:18.695Z,33.70
2022-10-29T23:33:49.201Z,30.97
2022-10-29T23:39:11.821Z,31.13
2022-10-29T23:44:33.906Z,32.67
2022-10-29T23:49:56.085Z,36.70
2022-10-29T23:55:18.528Z,28.83
